Terminal Aerodrome Forecast
Issued by NWS

Home | Current Version | Previous Version | Text Only | Print | Product List | Glossary On
Versions: 1 2 3 4 5 6 7 8 9 10 11 12 13 14 15 16 17 18 19 20 21 22 23 24 25
000
FTAK31 PANC 282334
TAFAVD
TAF
PAVD 282334Z 0100/0124 00000KT P6SM VCSH SCT030 BKN070
      TEMPO 0100/0104 3SM -SHSN OVC030
     FM010600 VRB03KT P6SM SCT030 BKN050
     FM011200 07009G21KT P6SM SKC
      AMD LTD TO CLD VIS AND WIND=

USA.gov is the U.S. government's official web portal to all federal, state and local government web resources and services.